TimeCST,TemperatureF,Dew PointF,Humidity,Sea Level PressureIn,VisibilityMPH,Wind Direction,Wind SpeedMPH,Gust SpeedMPH,PrecipitationIn,Events,Conditions,WindDirDegrees,DateUTC
12:53 AM,-0.9,-7.1,75,29.91,6.0,NW,17.3,-,N/A,,Haze,310,2013-01-31 06:53:00
1:53 AM,-2.0,-8.0,76,29.92,5.0,NW,19.6,-,N/A,,Haze,310,2013-01-31 07:53:00
2:53 AM,-4.0,-9.9,76,29.94,9.0,NW,15.0,-,N/A,,Overcast,310,2013-01-31 08:53:00
3:53 AM,-5.1,-11.0,76,29.96,4.0,NW,18.4,-,N/A,,Haze,310,2013-01-31 09:53:00
4:13 AM,-5.8,-11.2,77,29.85,2.0,NW,18.4,-,N/A,,Haze,310,2013-01-31 10:13:00
4:40 AM,-7.6,-13.0,77,29.87,1.8,NW,19.6,-,N/A,,Haze,320,2013-01-31 10:40:00
4:48 AM,-7.6,-13.0,77,29.87,2.5,NW,16.1,25.3,N/A,,Haze,320,2013-01-31 10:48:00
4:53 AM,-7.1,-13.0,75,29.99,2.5,NW,19.6,-,N/A,,Haze,310,2013-01-31 10:53:00
5:06 AM,-7.6,-14.8,71,29.88,4.0,NW,18.4,-,N/A,,Haze,310,2013-01-31 11:06:00
5:53 AM,-9.0,-15.0,75,30.02,6.0,NW,17.3,-,N/A,,Haze,310,2013-01-31 11:53:00
6:53 AM,-8.0,-14.1,75,30.05,4.0,NW,19.6,-,N/A,,Haze,320,2013-01-31 12:53:00
7:14 AM,-7.6,-14.8,71,29.93,1.8,NW,18.4,-,0.00,Snow,Light Snow,320,2013-01-31 13:14:00
7:53 AM,-7.1,-14.1,72,30.08,0.8,NW,18.4,-,0.00,,Haze,320,2013-01-31 13:53:00
7:59 AM,-7.6,-14.8,71,29.95,1.5,NW,18.4,-,N/A,,Haze,320,2013-01-31 13:59:00
8:24 AM,-7.6,-14.8,71,29.97,1.0,NW,19.6,-,N/A,,Haze,310,2013-01-31 14:24:00
8:53 AM,-8.0,-15.0,71,30.12,1.5,NW,19.6,27.6,N/A,,Haze,310,2013-01-31 14:53:00
9:08 AM,-7.6,-14.8,71,30.00,2.0,NW,18.4,-,N/A,,Haze,310,2013-01-31 15:08:00
9:12 AM,-7.6,-14.8,71,30.00,1.8,NW,21.9,-,N/A,,Haze,310,2013-01-31 15:12:00
9:41 AM,-7.6,-14.8,71,30.01,1.2,NW,20.7,27.6,N/A,,Haze,310,2013-01-31 15:41:00
9:53 AM,-7.1,-14.1,72,30.15,1.2,NNW,18.4,33.4,N/A,,Haze,330,2013-01-31 15:53:00
10:17 AM,-7.6,-14.8,71,30.03,2.0,NW,17.3,28.8,N/A,,Haze,310,2013-01-31 16:17:00
10:53 AM,-7.1,-14.1,72,30.18,1.8,NW,20.7,31.1,N/A,,Haze,320,2013-01-31 16:53:00
11:30 AM,-5.8,-14.8,65,30.07,2.5,WNW,21.9,-,N/A,,Haze,300,2013-01-31 17:30:00
11:37 AM,-5.8,-13.0,71,30.07,4.0,NW,19.6,-,N/A,,Haze,310,2013-01-31 17:37:00
11:53 AM,-6.0,-13.0,72,30.20,5.0,NW,17.3,26.5,N/A,,Haze,310,2013-01-31 17:53:00
12:11 PM,-5.8,-14.8,65,30.07,7.0,NW,20.7,27.6,N/A,,Mostly Cloudy,310,2013-01-31 18:11:00
12:53 PM,-6.0,-15.0,65,30.22,6.0,NW,19.6,31.1,N/A,,Haze,310,2013-01-31 18:53:00
1:01 PM,-5.8,-14.8,65,30.09,8.0,NW,21.9,26.5,N/A,,Overcast,310,2013-01-31 19:01:00
1:31 PM,-5.8,-14.8,65,30.10,10.0,NW,23.0,29.9,N/A,,Scattered Clouds,310,2013-01-31 19:31:00
1:53 PM,-6.0,-14.1,68,30.24,5.0,WNW,21.9,27.6,N/A,,Haze,300,2013-01-31 19:53:00
2:21 PM,-7.6,-14.8,71,30.12,10.0,NW,19.6,27.6,N/A,,Partly Cloudy,310,2013-01-31 20:21:00
2:53 PM,-7.1,-15.0,68,30.27,10.0,NW,24.2,-,N/A,,Scattered Clouds,310,2013-01-31 20:53:00
3:35 PM,-7.6,-14.8,71,30.15,5.0,NW,18.4,-,N/A,,Haze,310,2013-01-31 21:35:00
3:53 PM,-7.1,-15.0,68,30.30,4.0,NW,15.0,25.3,N/A,,Haze,310,2013-01-31 21:53:00
4:53 PM,-9.0,-17.0,68,30.32,10.0,NW,18.4,-,N/A,,Mostly Cloudy,310,2013-01-31 22:53:00
5:05 PM,-9.4,-18.4,65,30.17,10.0,WNW,18.4,-,N/A,,Partly Cloudy,300,2013-01-31 23:05:00
5:53 PM,-9.0,-18.0,65,30.33,10.0,WNW,15.0,-,N/A,,Clear,300,2013-01-31 23:53:00
6:53 PM,-9.9,-17.0,71,30.34,10.0,NW,16.1,-,N/A,,Clear,310,2013-02-01 00:53:00
7:53 PM,-11.0,-18.0,71,30.35,7.0,WNW,11.5,-,N/A,,Mostly Cloudy,300,2013-02-01 01:53:00
8:12 PM,-11.2,-18.4,70,30.20,10.0,WNW,9.2,-,N/A,,Scattered Clouds,300,2013-02-01 02:12:00
8:24 PM,-11.2,-18.4,70,30.21,10.0,WNW,12.7,-,N/A,,Partly Cloudy,290,2013-02-01 02:24:00
9:53 PM,-14.1,-20.0,75,30.37,10.0,WNW,13.8,-,N/A,,Clear,290,2013-02-01 03:53:00
10:53 PM,-14.1,-20.0,75,30.37,10.0,WNW,12.7,-,N/A,,Clear,300,2013-02-01 04:53:00
11:53 PM,-15.0,-20.9,75,30.37,10.0,NW,10.4,-,N/A,,Clear,310,2013-02-01 05:53:00